Time;durP1;ratioP1;P1;durP2;ratioP2;P2;SDS_P1;SDS_P2;PMS_P1;PMS_P2;Temp;Humidity;BMP_temperature;BMP_pressure;BME280_temperature;BME280_humidity;BME280_pressure;Samples;Min_cycle;Max_cycle;Signal;HPM_P1;HPM_P2
2023/08/28 00:00:45;;;;;;;;;;;;;;;13.13;94.68;101128.28;5020637;28;19946;-59
2023/08/28 00:03:10;;;;;;;;;;;;;;;13.15;95.88;101139.66;5020389;28;20063;-59
2023/08/28 00:05:36;;;;;;;;;;;;;;;13.16;95.35;101136.19;5023717;28;19939;-59
2023/08/28 00:08:02;;;;;;;;;;;;;;;13.16;95.05;101130.94;5024548;28;19917;-59
2023/08/28 00:10:27;;;;;;;;;;;;;;;13.18;94.71;101129.25;5024663;28;19902;-59
2023/08/28 00:12:52;;;;;;;;;;;;;;;13.17;94.64;101130.09;5024186;28;19904;-58
2023/08/28 00:15:18;;;;;;;;;;;;;;;13.13;94.71;101130.91;5023926;28;19945;-58
2023/08/28 00:17:43;;;;;;;;;;;;;;;13.12;95.04;101129.13;5011571;28;20147;-59
2023/08/28 00:20:08;;;;;;;;;;;;;;;13.12;94.94;101134.38;5024112;28;19972;-59
2023/08/28 00:22:37;;;;;;;;;;;;;;;13.13;94.87;101129.16;5023549;28;19917;-59
2023/08/28 00:25:07;;;;;;;;;;;;;;;13.15;94.48;101123.94;5015398;28;19916;-59
2023/08/28 00:27:32;;;;;;;;;;;;;;;13.11;94.17;101116.94;5023978;28;19906;-59
2023/08/28 00:29:57;;;;;;;;;;;;;;;13.08;94.24;101112.53;5026926;28;19948;-59
2023/08/28 00:32:23;;;;;;;;;;;;;;;13.07;94.27;101123.81;5024886;28;20167;-59
2023/08/28 00:34:49;;;;;;;;;;;;;;;13.05;94.31;101118.56;5015729;28;19910;-59
2023/08/28 00:37:14;;;;;;;;;;;;;;;13.04;94.21;101113.31;5018797;28;19902;-58
2023/08/28 00:39:39;;;;;;;;;;;;;;;12.99;94.63;101118.47;5020802;28;19941;-59
2023/08/28 00:42:04;;;;;;;;;;;;;;;13.01;94.34;101114.13;5012260;28;19902;-59
2023/08/28 00:44:30;;;;;;;;;;;;;;;13.02;95.05;101105.44;5030375;28;20162;-59
2023/08/28 00:46:55;;;;;;;;;;;;;;;13.02;94.88;101102.81;5024925;28;19906;-58
2023/08/28 00:49:21;;;;;;;;;;;;;;;13.01;94.55;101108.03;5025243;28;19905;-59
2023/08/28 00:51:46;;;;;;;;;;;;;;;12.97;94.34;101109.69;5019962;28;19973;-59
2023/08/28 00:54:11;;;;;;;;;;;;;;;12.94;94.60;101109.66;5015620;28;20162;-59
2023/08/28 00:56:36;;;;;;;;;;;;;;;12.91;95.79;101108.72;5021840;28;19913;-59
2023/08/28 00:59:02;;;;;;;;;;;;;;;12.88;95.33;101109.53;5025677;28;19910;-59
2023/08/28 01:01:28;;;;;;;;;;;;;;;12.86;95.00;101103.38;5024363;28;19916;-59
2023/08/28 01:03:53;;;;;;;;;;;;;;;12.87;96.03;101100.81;5021038;28;19948;-59
2023/08/28 01:06:23;;;;;;;;;;;;;;;12.87;95.80;101102.53;5015377;28;19917;-59
2023/08/28 01:08:49;;;;;;;;;;;;;;;12.83;95.79;101105.94;5021101;28;19937;-59
2023/08/28 01:11:19;;;;;;;;;;;;;;;12.82;95.50;101101.59;5020878;28;19929;-57
2023/08/28 01:13:51;;;;;;;;;;;;;;;12.82;95.31;101098.97;5025913;28;19910;-59
2023/08/28 01:16:17;;;;;;;;;;;;;;;12.76;95.68;101102.34;5026041;28;19952;-58
2023/08/28 01:18:43;;;;;;;;;;;;;;;12.70;96.12;101113.56;5014396;28;20051;-59
2023/08/28 01:21:09;;;;;;;;;;;;;;;12.67;97.68;101110.91;5023494;28;19973;-58
2023/08/28 01:23:54;;;;;;;;;;;;;;;12.65;98.18;101109.97;5015918;28;20190;-59
2023/08/28 01:26:19;;;;;;;;;;;;;;;12.66;96.88;101110.88;5023434;28;19974;-59
2023/08/28 01:28:45;;;;;;;;;;;;;;;12.64;96.63;101097.78;5014110;28;19909;-59
2023/08/28 01:31:11;;;;;;;;;;;;;;;12.59;96.54;101102.03;5011093;28;19912;-59
2023/08/28 01:33:36;;;;;;;;;;;;;;;12.55;96.25;101099.31;5026569;28;19906;-58
2023/08/28 01:36:07;;;;;;;;;;;;;;;12.51;96.24;101098.38;5021171;28;20091;-58
2023/08/28 01:38:34;;;;;;;;;;;;;;;12.51;96.70;101099.28;5016962;28;19976;-58
2023/08/28 01:41:00;;;;;;;;;;;;;;;12.52;96.46;101100.13;5015892;28;19921;-59
2023/08/28 01:43:28;;;;;;;;;;;;;;;12.50;96.91;101094.00;5022730;28;19912;-59
2023/08/28 01:45:54;;;;;;;;;;;;;;;12.49;96.67;101090.50;5021672;28;19971;-59
2023/08/28 01:48:19;;;;;;;;;;;;;;;12.50;96.68;101088.78;5022141;28;19910;-59
2023/08/28 01:50:44;;;;;;;;;;;;;;;12.51;96.21;101085.28;5016290;28;20163;-58
2023/08/28 01:53:10;;;;;;;;;;;;;;;12.47;96.44;101075.63;5015779;28;19920;-59
2023/08/28 01:55:44;;;;;;;;;;;;;;;12.46;96.85;101081.72;5024347;28;19973;-59
2023/08/28 01:58:09;;;;;;;;;;;;;;;12.45;96.48;101087.81;5015557;28;19969;-58
2023/08/28 02:00:35;;;;;;;;;;;;;;;12.43;97.00;101086.91;5019888;28;19960;-59
2023/08/28 02:03:00;;;;;;;;;;;;;;;12.42;96.80;101085.13;5029472;28;19923;-58
2023/08/28 02:05:26;;;;;;;;;;;;;;;12.40;97.08;101076.34;5025898;28;20173;-58
2023/08/28 02:07:51;;;;;;;;;;;;;;;12.40;97.29;101076.34;5025289;28;20190;-58
2023/08/28 02:10:16;;;;;;;;;;;;;;;12.40;97.31;101069.44;5025864;28;19925;-59
2023/08/28 02:12:41;;;;;;;;;;;;;;;12.41;97.01;101065.97;5025956;28;19977;-59
2023/08/28 02:15:07;;;;;;;;;;;;;;;12.40;96.80;101058.06;5025797;28;19908;-58
2023/08/28 02:17:32;;;;;;;;;;;;;;;12.38;96.45;101065.00;5026166;28;20047;-58
2023/08/28 02:19:57;;;;;;;;;;;;;;;12.31;96.76;101064.00;5025709;28;19948;-58
2023/08/28 02:22:22;;;;;;;;;;;;;;;12.28;96.79;101069.16;5024727;28;19910;-58
2023/08/28 02:24:47;;;;;;;;;;;;;;;12.29;96.96;101070.94;5021307;28;19964;-58
2023/08/28 02:27:13;;;;;;;;;;;;;;;12.30;96.86;101067.47;5016546;28;19997;-58
2023/08/28 02:29:38;;;;;;;;;;;;;;;12.31;96.83;101077.06;5017117;28;19909;-59
2023/08/28 02:32:03;;;;;;;;;;;;;;;12.30;96.42;101083.16;5020419;28;19906;-58
2023/08/28 02:34:28;;;;;;;;;;;;;;;12.26;96.63;101083.94;5020591;28;20055;-59
2023/08/28 02:36:53;;;;;;;;;;;;;;;12.23;96.71;101082.13;5020264;28;19911;-58
2023/08/28 02:39:19;;;;;;;;;;;;;;;12.22;96.66;101079.50;5023828;28;20154;-58
2023/08/28 02:41:44;;;;;;;;;;;;;;;12.21;96.49;101073.41;5016396;28;19906;-58
2023/08/28 02:44:09;;;;;;;;;;;;;;;12.17;96.72;101071.56;5019421;28;20161;-59
2023/08/28 02:46:34;;;;;;;;;;;;;;;12.15;96.91;101079.38;5023855;28;19928;-58
2023/08/28 02:48:59;;;;;;;;;;;;;;;12.13;97.50;101074.97;5017839;28;20001;-58
2023/08/28 02:51:24;;;;;;;;;;;;;;;12.09;97.57;101078.34;5024921;28;19913;-59
2023/08/28 02:53:50;;;;;;;;;;;;;;;12.06;97.23;101076.56;5017981;28;19905;-59
2023/08/28 02:56:21;;;;;;;;;;;;;;;12.09;97.59;101078.34;5021379;28;19905;-59
2023/08/28 02:58:46;;;;;;;;;;;;;;;12.08;97.46;101080.09;5023834;28;20091;-58
2023/08/28 03:01:11;;;;;;;;;;;;;;;12.08;97.85;101081.81;5027374;28;20139;-59
2023/08/28 03:03:36;;;;;;;;;;;;;;;12.05;97.53;101079.13;5023884;28;19905;-58
2023/08/28 03:06:01;;;;;;;;;;;;;;;11.95;97.28;101084.16;5023088;28;20182;-58
2023/08/28 03:08:28;;;;;;;;;;;;;;;11.87;97.52;101090.03;5025070;28;19905;-58
2023/08/28 03:10:53;;;;;;;;;;;;;;;11.84;97.57;101093.47;5018585;28;19952;-58
2023/08/28 03:13:19;;;;;;;;;;;;;;;11.82;97.73;101097.78;5019163;28;20035;-58
2023/08/28 03:15:44;;;;;;;;;;;;;;;11.80;97.80;101099.47;5011292;28;19912;-59
2023/08/28 03:18:09;;;;;;;;;;;;;;;11.82;97.99;101100.38;5023576;28;19906;-58
2023/08/28 03:20:34;;;;;;;;;;;;;;;11.81;97.65;101104.72;5011254;28;19906;-58
2023/08/28 03:23:02;;;;;;;;;;;;;;;11.74;97.53;101100.19;5012506;28;19960;-58
2023/08/28 03:25:27;;;;;;;;;;;;;;;11.72;97.97;101103.63;5013200;28;20011;-58
2023/08/28 03:27:53;;;;;;;;;;;;;;;11.72;97.89;101103.63;5017639;28;19910;-58
2023/08/28 03:30:18;;;;;;;;;;;;;;;11.70;97.89;101100.09;5019618;28;19902;-58
2023/08/28 03:32:43;;;;;;;;;;;;;;;11.66;97.82;101107.84;5012713;28;19937;-58
2023/08/28 03:35:09;;;;;;;;;;;;;;;11.61;97.81;101104.25;5016131;28;19905;-58
2023/08/28 03:37:34;;;;;;;;;;;;;;;11.60;97.74;101115.56;5012205;28;19910;-58
2023/08/28 03:39:59;;;;;;;;;;;;;;;11.59;97.78;101113.78;5012391;28;20153;-58
2023/08/28 03:42:24;;;;;;;;;;;;;;;11.57;97.98;101127.63;5009145;28;19905;-58
2023/08/28 03:44:49;;;;;;;;;;;;;;;11.54;98.18;101125.81;5019869;28;19937;-58
2023/08/28 03:47:14;;;;;;;;;;;;;;;11.52;98.15;101132.75;5020259;28;19920;-58
2023/08/28 03:49:40;;;;;;;;;;;;;;;11.54;98.72;101125.81;5008144;28;19956;-58
2023/08/28 03:52:05;;;;;;;;;;;;;;;11.54;99.04;101130.16;5020239;28;19906;-58
2023/08/28 03:54:30;;;;;;;;;;;;;;;11.54;98.89;101131.03;5020192;28;19976;-58
2023/08/28 03:56:55;;;;;;;;;;;;;;;11.55;98.74;101132.81;5022583;28;19905;-58
2023/08/28 03:59:21;;;;;;;;;;;;;;;11.55;99.05;101137.16;5023866;28;19917;-59
2023/08/28 04:01:47;;;;;;;;;;;;;;;11.57;98.94;101145.91;5015855;28;19909;-58
2023/08/28 04:04:12;;;;;;;;;;;;;;;11.60;98.75;101152.09;5030200;28;19901;-58
2023/08/28 04:06:37;;;;;;;;;;;;;;;11.63;98.97;101151.28;5021435;28;20044;-58
2023/08/28 04:09:02;;;;;;;;;;;;;;;11.64;99.31;101146.09;5027643;28;20132;-57
2023/08/28 04:11:27;;;;;;;;;;;;;;;11.66;99.13;101153.97;5026629;28;21045;-58
2023/08/28 04:13:53;;;;;;;;;;;;;;;11.72;99.01;101155.84;5024026;28;19906;-57
2023/08/28 04:16:18;;;;;;;;;;;;;;;11.73;99.85;101141.94;5027642;28;19910;-58
2023/08/28 04:18:43;;;;;;;;;;;;;;;11.76;99.88;101144.59;5025475;28;19913;-58
2023/08/28 04:21:09;;;;;;;;;;;;;;;11.78;99.92;101150.75;5022528;28;19920;-57
2023/08/28 04:23:34;;;;;;;;;;;;;;;11.82;100.00;101147.38;5023279;28;19931;-58
2023/08/28 04:26:00;;;;;;;;;;;;;;;11.84;100.00;101148.28;5019155;28;19905;-58
2023/08/28 04:28:25;;;;;;;;;;;;;;;11.84;100.00;101145.69;5023740;28;19914;-57
2023/08/28 04:30:50;;;;;;;;;;;;;;;11.86;100.00;101153.53;5027631;28;19913;-58
2023/08/28 04:33:15;;;;;;;;;;;;;;;11.89;100.00;101153.59;5021931;28;19906;-56
2023/08/28 04:35:40;;;;;;;;;;;;;;;11.92;100.00;101153.69;5023145;28;19905;-58
2023/08/28 04:38:06;;;;;;;;;;;;;;;11.95;100.00;101154.69;5016976;28;20146;-58
2023/08/28 04:40:31;;;;;;;;;;;;;;;11.98;100.00;101152.13;5026040;28;19916;-58
2023/08/28 04:42:56;;;;;;;;;;;;;;;12.02;100.00;101160.03;5025206;28;19948;-58
2023/08/28 04:45:21;;;;;;;;;;;;;;;12.03;100.00;101160.06;5021380;28;20135;-58
2023/08/28 04:47:46;;;;;;;;;;;;;;;12.02;100.00;101154.81;5024014;28;20158;-58
2023/08/28 04:50:12;;;;;;;;;;;;;;;11.99;100.00;101148.69;5026927;28;19917;-58
2023/08/28 04:52:37;;;;;;;;;;;;;;;11.99;100.00;101143.47;5014370;28;19948;-58
2023/08/28 04:55:02;;;;;;;;;;;;;;;11.99;100.00;101140.84;5024437;28;20137;-57
2023/08/28 04:57:27;;;;;;;;;;;;;;;12.02;100.00;101133.91;5028436;28;19897;-58
2023/08/28 04:59:53;;;;;;;;;;;;;;;12.03;100.00;101135.69;5016626;28;19918;-58
2023/08/28 05:02:18;;;;;;;;;;;;;;;12.01;100.00;101138.28;5025822;28;19952;-58
2023/08/28 05:04:43;;;;;;;;;;;;;;;12.02;100.00;101134.81;5015948;28;19906;-57
2023/08/28 05:07:08;;;;;;;;;;;;;;;12.03;100.00;101127.84;5025449;28;19913;-57
2023/08/28 05:09:34;;;;;;;;;;;;;;;12.03;100.00;101126.13;5019401;28;20190;-58
2023/08/28 05:11:59;;;;;;;;;;;;;;;12.02;100.00;101132.22;5022230;28;19930;-58
2023/08/28 05:14:24;;;;;;;;;;;;;;;12.04;100.00;101125.28;5020112;28;20000;-58
2023/08/28 05:16:49;;;;;;;;;;;;;;;12.05;100.00;101126.16;5022504;28;19917;-57
2023/08/28 05:19:14;;;;;;;;;;;;;;;12.06;100.00;101125.31;5024157;28;19909;-58
2023/08/28 05:21:40;;;;;;;;;;;;;;;12.06;100.00;101131.41;5023494;28;20132;-58
2023/08/28 05:24:05;;;;;;;;;;;;;;;12.09;100.00;101126.25;5025051;28;19909;-57
2023/08/28 05:26:30;;;;;;;;;;;;;;;12.12;100.00;101133.28;5015253;28;20218;-58
2023/08/28 05:28:56;;;;;;;;;;;;;;;12.14;100.00;101123.75;5023760;28;19955;-58
2023/08/28 05:31:21;;;;;;;;;;;;;;;12.15;100.00;101126.41;5026938;28;20159;-58
2023/08/28 05:33:46;;;;;;;;;;;;;;;12.18;100.00;101121.25;5032385;28;19913;-56
2023/08/28 05:36:11;;;;;;;;;;;;;;;12.23;100.00;101123.94;5016663;28;19905;-58
2023/08/28 05:38:36;;;;;;;;;;;;;;;12.30;100.00;101128.44;5019431;28;19937;-57
2023/08/28 05:41:03;;;;;;;;;;;;;;;12.34;100.00;101118.97;5024596;28;19912;-58
2023/08/28 05:43:28;;;;;;;;;;;;;;;12.40;100.00;101123.41;5025687;28;19941;-58
2023/08/28 05:45:53;;;;;;;;;;;;;;;12.43;100.00;101124.34;5022210;28;19905;-58
2023/08/28 05:48:18;;;;;;;;;;;;;;;12.48;100.00;101114.00;5024631;28;19909;-58
2023/08/28 05:50:44;;;;;;;;;;;;;;;12.52;100.00;101121.03;5024196;28;19901;-58
2023/08/28 05:53:09;;;;;;;;;;;;;;;12.58;100.00;101121.16;5021897;28;20090;-57
2023/08/28 05:55:34;;;;;;;;;;;;;;;12.61;100.00;101130.81;5018752;28;19905;-58
2023/08/28 05:57:59;;;;;;;;;;;;;;;12.64;100.00;101131.75;5025331;28;19964;-58
2023/08/28 06:00:26;;;;;;;;;;;;;;;12.66;100.00;101139.63;5022588;28;20080;-58
2023/08/28 06:02:51;;;;;;;;;;;;;;;12.68;100.00;101123.09;5030447;28;20288;-58
2023/08/28 06:05:16;;;;;;;;;;;;;;;12.71;100.00;101124.91;5025843;28;19937;-58
2023/08/28 06:07:41;;;;;;;;;;;;;;;12.73;100.00;101120.59;5025576;28;19941;-57
2023/08/28 06:10:07;;;;;;;;;;;;;;;12.75;100.00;101123.25;5025868;28;19944;-58
2023/08/28 06:12:33;;;;;;;;;;;;;;;12.77;100.00;101131.97;5025781;28;19947;-58
2023/08/28 06:14:58;;;;;;;;;;;;;;;12.79;100.00;101128.56;5025878;28;19932;-58
2023/08/28 06:17:23;;;;;;;;;;;;;;;12.81;100.00;101124.22;5025371;28;20130;-58
2023/08/28 06:19:49;;;;;;;;;;;;;;;12.86;100.00;101121.69;5026512;28;19932;-58
2023/08/28 06:22:14;;;;;;;;;;;;;;;12.92;100.00;101124.44;5018341;28;19909;-58
2023/08/28 06:24:39;;;;;;;;;;;;;;;12.95;100.00;101126.25;5025631;28;19901;-58
2023/08/28 06:27:04;;;;;;;;;;;;;;;12.98;100.00;101127.16;5025467;28;19902;-58
2023/08/28 06:29:29;;;;;;;;;;;;;;;13.02;100.00;101123.75;5025466;28;20055;-58
2023/08/28 06:31:56;;;;;;;;;;;;;;;13.10;100.00;101130.84;5020885;28;21101;-58
2023/08/28 06:34:22;;;;;;;;;;;;;;;13.14;100.00;101130.94;5022103;28;19905;-58
2023/08/28 06:36:49;;;;;;;;;;;;;;;13.19;100.00;101125.78;5023266;28;20052;-58
2023/08/28 06:39:14;;;;;;;;;;;;;;;13.26;100.00;101132.00;5024658;28;19902;-58
2023/08/28 06:41:39;;;;;;;;;;;;;;;13.30;100.00;101132.06;5021071;28;19940;-58
2023/08/28 06:44:05;;;;;;;;;;;;;;;13.36;100.00;101140.06;5017227;28;19969;-58
2023/08/28 06:46:30;;;;;;;;;;;;;;;13.42;100.00;101143.66;5015954;28;19977;-58
2023/08/28 06:48:55;;;;;;;;;;;;;;;13.46;100.00;101142.84;5027988;28;19916;-58
2023/08/28 06:51:20;;;;;;;;;;;;;;;13.52;100.00;101145.56;5026802;28;20206;-58
2023/08/28 06:53:46;;;;;;;;;;;;;;;13.60;100.00;101148.28;5016434;28;19906;-58
2023/08/28 06:56:11;;;;;;;;;;;;;;;13.67;100.00;101152.75;5024159;28;19902;-58
2023/08/28 06:58:36;;;;;;;;;;;;;;;13.73;100.00;101153.75;5024876;28;19902;-58
2023/08/28 07:01:01;;;;;;;;;;;;;;;13.82;100.00;101157.38;5024709;28;20054;-58
2023/08/28 07:03:27;;;;;;;;;;;;;;;13.89;100.00;101156.63;5023823;28;20032;-58
2023/08/28 07:05:52;;;;;;;;;;;;;;;13.94;100.00;101159.31;5020049;28;20147;-58
2023/08/28 07:08:17;;;;;;;;;;;;;;;13.96;100.00;101158.47;5022521;28;19909;-58
2023/08/28 07:10:42;;;;;;;;;;;;;;;14.01;100.00;101163.78;5021252;28;19928;-58
2023/08/28 07:13:08;;;;;;;;;;;;;;;14.04;100.00;101169.06;5024680;28;19943;-58
2023/08/28 07:15:33;;;;;;;;;;;;;;;14.09;100.00;101162.13;5025836;28;20139;-58
2023/08/28 07:17:58;;;;;;;;;;;;;;;14.14;100.00;101164.84;5023437;28;20166;-59
2023/08/28 07:20:23;;;;;;;;;;;;;;;14.21;100.00;101174.53;5024375;28;19905;-59
2023/08/28 07:22:49;;;;;;;;;;;;;;;14.27;100.00;101166.75;5023538;28;20159;-58
2023/08/28 07:25:19;;;;;;;;;;;;;;;14.36;100.00;101164.25;5025257;28;19913;-58
2023/08/28 07:27:45;;;;;;;;;;;;;;;14.50;100.00;101160.94;5020714;28;19929;-58
2023/08/28 07:30:10;;;;;;;;;;;;;;;14.64;100.00;101169.00;5030896;28;19979;-58
2023/08/28 07:32:35;;;;;;;;;;;;;;;14.73;100.00;101163.84;5024721;28;20126;-58
2023/08/28 07:35:00;;;;;;;;;;;;;;;14.93;100.00;101167.59;5023821;28;20040;-58
2023/08/28 07:37:28;;;;;;;;;;;;;;;15.03;100.00;101157.19;5024683;28;19901;-58
2023/08/28 07:39:54;;;;;;;;;;;;;;;15.07;100.00;101153.72;5024011;28;19925;-58
2023/08/28 07:42:19;;;;;;;;;;;;;;;15.16;100.00;101152.94;5023441;28;19905;-58
2023/08/28 07:44:44;;;;;;;;;;;;;;;15.24;100.00;101152.16;5022256;28;20000;-58
2023/08/28 07:47:10;;;;;;;;;;;;;;;15.37;100.00;101158.38;5022943;28;19913;-58
2023/08/28 07:49:35;;;;;;;;;;;;;;;15.47;100.00;101154.97;5023191;28;19901;-58
2023/08/28 07:52:00;;;;;;;;;;;;;;;15.53;100.00;101158.53;5022936;28;20264;-58
2023/08/28 07:54:25;;;;;;;;;;;;;;;15.58;100.00;101152.44;5022054;28;19912;-58
2023/08/28 07:56:50;;;;;;;;;;;;;;;15.64;100.00;101147.25;5022432;28;19906;-58
2023/08/28 07:59:15;;;;;;;;;;;;;;;15.72;100.00;101155.16;5031477;28;19924;-58
2023/08/28 08:01:41;;;;;;;;;;;;;;;15.81;100.00;101147.41;5026818;28;19941;-58
2023/08/28 08:04:06;;;;;;;;;;;;;;;15.92;100.00;101157.09;5023600;28;19906;-58
2023/08/28 08:06:31;;;;;;;;;;;;;;;16.02;100.00;101163.28;5023201;28;20170;-58
2023/08/28 08:08:56;;;;;;;;;;;;;;;16.09;100.00;101165.97;5024026;28;19909;-58
2023/08/28 08:11:22;;;;;;;;;;;;;;;16.12;100.00;101165.97;5023981;28;19906;-58
2023/08/28 08:13:47;;;;;;;;;;;;;;;16.26;100.00;101165.16;5024304;28;20035;-58
2023/08/28 08:16:12;;;;;;;;;;;;;;;16.26;100.00;101157.28;5019382;28;19952;-58
2023/08/28 08:18:38;;;;;;;;;;;;;;;16.33;100.00;101154.69;5022283;28;19913;-59
2023/08/28 08:21:04;;;;;;;;;;;;;;;16.39;100.00;101155.59;5030137;28;19914;-59
2023/08/28 08:23:29;;;;;;;;;;;;;;;16.39;100.00;101148.56;5018798;28;20229;-59
2023/08/28 08:25:54;;;;;;;;;;;;;;;16.41;100.00;101152.09;5030447;28;20036;-58
2023/08/28 08:28:20;;;;;;;;;;;;;;;16.45;100.00;101152.97;5030494;28;19909;-59
2023/08/28 08:30:45;;;;;;;;;;;;;;;16.46;100.00;101155.63;5031944;28;20203;-59
2023/08/28 08:33:11;;;;;;;;;;;;;;;16.47;100.00;101157.38;5014406;28;20204;-59
2023/08/28 08:35:36;;;;;;;;;;;;;;;16.47;100.00;101156.53;5026284;28;19901;-59
2023/08/28 08:38:01;;;;;;;;;;;;;;;16.49;100.00;101160.88;5019082;28;19973;-59
2023/08/28 08:40:26;;;;;;;;;;;;;;;16.53;100.00;101164.44;5023830;28;19912;-59
2023/08/28 08:42:55;;;;;;;;;;;;;;;16.58;100.00;101167.06;5022748;28;19906;-59
2023/08/28 08:45:30;;;;;;;;;;;;;;;16.69;100.00;101170.63;5023786;28;19916;-59
2023/08/28 08:47:59;;;;;;;;;;;;;;;16.62;100.00;101174.09;5023425;28;19933;-59
2023/08/28 08:50:27;;;;;;;;;;;;;;;16.61;100.00;101172.34;5025354;28;19905;-59
2023/08/28 08:52:53;;;;;;;;;;;;;;;16.60;100.00;101173.25;5024284;28;20105;-59
2023/08/28 08:55:21;;;;;;;;;;;;;;;16.60;100.00;101173.25;5026206;28;20148;-59
2023/08/28 08:57:48;;;;;;;;;;;;;;;16.58;100.00;101173.19;5027483;28;19902;-60
2023/08/28 09:00:17;;;;;;;;;;;;;;;16.59;100.00;101180.22;5040854;28;19906;-59
2023/08/28 09:02:43;;;;;;;;;;;;;;;16.64;100.00;101174.97;5026674;28;19909;-60
2023/08/28 09:05:09;;;;;;;;;;;;;;;16.71;100.00;101168.00;5026719;28;19952;-60
2023/08/28 09:07:34;;;;;;;;;;;;;;;16.75;100.00;101178.53;5026586;28;19911;-59
2023/08/28 09:10:00;;;;;;;;;;;;;;;16.86;100.00;101173.31;5024071;28;19905;-60
2023/08/28 09:12:27;;;;;;;;;;;;;;;17.08;100.00;101162.88;5021684;28;19905;-59
2023/08/28 09:14:52;;;;;;;;;;;;;;;17.18;100.00;101165.50;5026820;28;19972;-59
2023/08/28 09:17:18;;;;;;;;;;;;;;;17.33;100.00;101164.66;5017879;28;20099;-59
2023/08/28 09:19:47;;;;;;;;;;;;;;;17.62;100.00;101162.91;5024987;28;20155;-60
2023/08/28 09:22:12;;;;;;;;;;;;;;;17.72;99.04;101156.75;5035250;28;19909;-60
2023/08/28 09:24:38;;;;;;;;;;;;;;;17.72;98.75;101156.75;5030660;28;19908;-59
2023/08/28 09:27:03;;;;;;;;;;;;;;;17.67;99.12;101153.22;5024328;28;19912;-60
2023/08/28 09:29:28;;;;;;;;;;;;;;;17.69;98.65;101157.63;5024950;28;19912;-59
2023/08/28 09:32:00;;;;;;;;;;;;;;;17.67;97.58;101163.75;5027396;28;19948;-60
2023/08/28 09:34:34;;;;;;;;;;;;;;;17.63;96.05;101164.66;5025313;28;19921;-59
2023/08/28 09:37:00;;;;;;;;;;;;;;;17.56;96.36;101162.00;5024935;28;19949;-60
2023/08/28 09:39:25;;;;;;;;;;;;;;;17.53;96.44;101169.06;5028530;28;20162;-59
2023/08/28 09:41:50;;;;;;;;;;;;;;;17.53;96.49;101162.03;5026102;28;19905;-59
2023/08/28 09:44:17;;;;;;;;;;;;;;;17.53;96.28;101169.06;5019043;28;19905;-60
2023/08/28 09:46:43;;;;;;;;;;;;;;;17.54;96.17;101168.19;5015058;28;19905;-60
2023/08/28 09:49:09;;;;;;;;;;;;;;;17.52;95.59;101168.19;5029291;28;19951;-59
2023/08/28 09:51:41;;;;;;;;;;;;;;;17.50;95.10;101169.94;5028260;28;19906;-60
2023/08/28 09:54:07;;;;;;;;;;;;;;;17.51;96.46;101171.69;5026373;28;19917;-59
2023/08/28 09:56:33;;;;;;;;;;;;;;;17.58;95.64;101177.81;5026339;28;19908;-60
2023/08/28 09:58:58;;;;;;;;;;;;;;;17.61;95.93;101175.22;5037206;28;19901;-59
2023/08/28 10:01:28;;;;;;;;;;;;;;;17.65;95.81;101179.59;5026909;28;19976;-59
2023/08/28 10:03:53;;;;;;;;;;;;;;;17.75;95.80;101179.59;5026186;28;20136;-60
2023/08/28 10:06:19;;;;;;;;;;;;;;;17.80;95.58;101173.44;5026305;28;19967;-59
2023/08/28 10:08:45;;;;;;;;;;;;;;;17.83;95.42;101167.25;5026122;28;19913;-60
2023/08/28 10:11:10;;;;;;;;;;;;;;;17.90;96.27;101164.66;5025297;28;19928;-60
2023/08/28 10:13:35;;;;;;;;;;;;;;;17.98;95.51;101166.41;5026006;28;19902;-60
2023/08/28 10:16:05;;;;;;;;;;;;;;;18.03;95.14;101170.81;5026052;28;20032;-60
2023/08/28 10:18:43;;;;;;;;;;;;;;;18.13;93.85;101163.72;5016870;28;19910;-60
2023/08/28 10:21:08;;;;;;;;;;;;;;;18.28;94.04;101161.94;5022660;28;19921;-60
2023/08/28 10:23:34;;;;;;;;;;;;;;;18.38;93.94;101159.28;5025647;28;19941;-60
2023/08/28 10:26:01;;;;;;;;;;;;;;;18.55;93.05;101167.13;5024964;28;20142;-60
2023/08/28 10:28:28;;;;;;;;;;;;;;;18.71;93.22;101160.00;5025451;28;20055;-61
2023/08/28 10:30:53;;;;;;;;;;;;;;;18.85;92.22;101170.47;5025540;28;19902;-60
2023/08/28 10:33:22;;;;;;;;;;;;;;;18.89;92.39;101166.13;5025488;28;20123;-61
2023/08/28 10:35:49;;;;;;;;;;;;;;;18.89;91.85;101169.63;5024244;28;19906;-60
2023/08/28 10:38:15;;;;;;;;;;;;;;;18.88;91.51;101172.28;5021457;28;19905;-60
2023/08/28 10:40:40;;;;;;;;;;;;;;;18.87;92.19;101174.03;5024131;28;19924;-61
2023/08/28 10:43:06;;;;;;;;;;;;;;;18.87;91.97;101176.69;5021247;28;19973;-61
2023/08/28 10:45:34;;;;;;;;;;;;;;;18.82;90.55;101172.28;5021164;28;19916;-61
2023/08/28 10:47:59;;;;;;;;;;;;;;;18.74;91.50;101169.66;5027158;28;19932;-61
2023/08/28 10:50:33;;;;;;;;;;;;;;;18.73;91.84;101166.16;5025277;28;20120;-61
2023/08/28 10:52:58;;;;;;;;;;;;;;;18.70;91.84;101162.66;5024526;28;20139;-61
2023/08/28 10:55:23;;;;;;;;;;;;;;;18.76;91.60;101167.91;5024655;28;20265;-61
2023/08/28 10:57:49;;;;;;;;;;;;;;;18.71;88.13;101172.31;5034015;28;19909;-61
2023/08/28 11:00:15;;;;;;;;;;;;;;;18.58;90.13;101164.47;5028519;28;20062;-61
2023/08/28 11:03:17;;;;;;;;;;;;;;;18.52;90.76;101153.91;5026850;28;20047;-61
2023/08/28 11:05:43;;;;;;;;;;;;;;;18.52;91.52;101159.19;5011279;28;19928;-61
2023/08/28 11:08:11;;;;;;;;;;;;;;;18.56;91.08;101160.94;5021639;28;19980;-61
2023/08/28 11:10:37;;;;;;;;;;;;;;;18.61;91.34;101158.31;5023984;28;20059;-61
2023/08/28 11:13:03;;;;;;;;;;;;;;;18.70;90.87;101154.75;5024161;28;20139;-61
2023/08/28 11:15:29;;;;;;;;;;;;;;;18.82;89.36;101153.78;5017686;28;19972;-61
2023/08/28 11:18:13;;;;;;;;;;;;;;;18.81;89.39;101152.91;5025175;28;19909;-61
2023/08/28 11:20:38;;;;;;;;;;;;;;;18.86;90.43;101147.63;5024715;28;19964;-61
2023/08/28 11:23:04;;;;;;;;;;;;;;;18.91;90.42;101149.34;5023409;28;19959;-61
2023/08/28 11:25:36;;;;;;;;;;;;;;;19.06;89.85;101144.84;5022165;28;19925;-61
2023/08/28 11:28:01;;;;;;;;;;;;;;;19.23;87.74;101143.00;5026751;28;19924;-61
2023/08/28 11:30:26;;;;;;;;;;;;;;;19.41;87.41;101146.38;5029422;28;19905;-61
2023/08/28 11:32:52;;;;;;;;;;;;;;;19.64;86.81;101136.47;5014401;28;19906;-61
2023/08/28 11:35:18;;;;;;;;;;;;;;;19.92;85.00;101143.28;5023148;28;19906;-61
2023/08/28 11:37:48;;;;;;;;;;;;;;;20.25;81.34;101141.19;5018237;28;19913;-62
2023/08/28 11:40:20;;;;;;;;;;;;;;;20.43;80.09;101148.00;5019307;28;19981;-61
2023/08/28 11:42:46;;;;;;;;;;;;;;;20.60;80.18;101135.44;5022267;28;19976;-61
2023/08/28 11:45:17;;;;;;;;;;;;;;;20.85;81.79;101137.75;5022516;28;20186;-61
2023/08/28 11:47:43;;;;;;;;;;;;;;;20.94;81.53;101137.66;5025148;28;19909;-61
2023/08/28 11:50:08;;;;;;;;;;;;;;;20.99;79.67;101138.44;5023436;28;19941;-62
2023/08/28 11:52:34;;;;;;;;;;;;;;;21.04;80.02;101132.19;5023394;28;19913;-62
2023/08/28 11:55:00;;;;;;;;;;;;;;;21.08;81.28;101136.56;5019618;28;19905;-62
2023/08/28 11:57:26;;;;;;;;;;;;;;;21.04;79.53;101138.34;5024455;28;19905;-62
2023/08/28 11:59:52;;;;;;;;;;;;;;;20.93;77.32;101135.88;5016337;28;20109;-62
2023/08/28 12:02:19;;;;;;;;;;;;;;;20.75;79.75;101147.59;5019072;28;19951;-62
2023/08/28 12:04:48;;;;;;;;;;;;;;;20.63;79.24;101143.31;5012331;28;20140;-62
2023/08/28 12:07:26;;;;;;;;;;;;;;;20.44;80.35;101147.13;5023334;28;19960;-62
2023/08/28 12:09:52;;;;;;;;;;;;;;;20.29;78.43;101149.06;5024216;28;20131;-62
2023/08/28 12:12:18;;;;;;;;;;;;;;;20.09;78.96;101148.41;5021529;28;19901;-62
2023/08/28 12:14:44;;;;;;;;;;;;;;;19.96;80.07;101150.31;5022568;28;20178;-62
2023/08/28 12:17:14;;;;;;;;;;;;;;;19.85;79.49;101152.19;5009768;28;19902;-62
2023/08/28 12:19:39;;;;;;;;;;;;;;;19.74;78.65;101147.84;5014606;28;19906;-62
2023/08/28 12:22:05;;;;;;;;;;;;;;;19.56;80.54;101153.28;5015585;28;20019;-62
2023/08/28 12:24:30;;;;;;;;;;;;;;;19.55;80.26;101160.38;5020027;28;19969;-62
2023/08/28 12:26:56;;;;;;;;;;;;;;;19.60;80.23;101157.69;5024597;28;19906;-62